Time;durP1;ratioP1;P1;durP2;ratioP2;P2;SDS_P1;SDS_P2;PMS_P1;PMS_P2;Temp;Humidity;BMP_temperature;BMP_pressure;BME280_temperature;BME280_humidity;BME280_pressure;Samples;Min_cycle;Max_cycle;Signal;HPM_P1;HPM_P2
2021/12/24 00:01:10;;;;;;;17.70;10.13;;;6.30;99.90;;;5.38;100.00;96887.91;4982317;28;20510;-70
2021/12/24 00:03:38;;;;;;;19.17;10.85;;;6.40;99.90;;;5.39;100.00;96896.47;4980421;28;20073;-70
2021/12/24 00:06:07;;;;;;;16.33;9.65;;;6.30;99.90;;;5.42;100.00;96894.63;4980458;28;20056;-70
2021/12/24 00:08:36;;;;;;;15.75;9.77;;;6.40;99.90;;;5.44;100.00;96904.88;4983540;28;20177;-70
2021/12/24 00:11:05;;;;;;;19.85;9.82;;;6.40;99.90;;;5.47;100.00;96884.19;4983080;28;20137;-70
2021/12/24 00:13:37;;;;;;;16.70;10.45;;;6.40;99.90;;;5.49;100.00;96905.56;4982815;28;20053;-70
2021/12/24 00:18:47;;;;;;;16.88;10.05;;;6.50;99.90;;;5.57;100.00;96883.00;4980181;28;20141;-70
2021/12/24 00:37:30;;;;;;;18.05;8.85;;;6.60;99.90;;;5.68;100.00;96856.03;4979625;28;20204;-70
2021/12/24 00:40:17;;;;;;;21.33;9.93;;;6.50;99.90;;;5.57;100.00;96862.41;4978182;28;20090;-70
2021/12/24 00:42:53;;;;;;;16.95;9.20;;;6.50;99.90;;;5.65;100.00;96859.53;4983310;28;20052;-69
2021/12/24 00:45:27;;;;;;;18.38;10.65;;;6.60;99.90;;;5.61;100.00;96856.25;4984019;28;20078;-70
2021/12/24 00:47:57;;;;;;;18.40;10.50;;;6.50;99.90;;;5.63;100.00;96862.19;4984292;28;20061;-70
2021/12/24 00:50:29;;;;;;;16.50;9.73;;;6.60;99.90;;;5.61;100.00;96861.41;4978615;28;20057;-68
2021/12/24 00:55:02;;;;;;;15.57;10.43;;;6.60;99.90;;;5.59;100.00;96850.31;4981610;28;20130;-68
2021/12/24 00:55:51;;;;;;;16.00;10.23;;;6.60;99.90;;;5.67;100.00;96860.34;4978446;28;20050;-70
2021/12/24 00:58:18;;;;;;;18.30;10.57;;;6.70;99.90;;;5.67;100.00;96862.91;4982226;28;20046;-70
2021/12/24 01:00:45;;;;;;;19.90;10.18;;;6.70;99.90;;;5.79;100.00;96857.34;4983177;28;20085;-70
2021/12/24 01:03:12;;;;;;;16.60;10.35;;;6.80;99.90;;;5.79;100.00;96853.91;4977817;28;20114;-70
2021/12/24 01:05:41;;;;;;;19.25;10.88;;;6.80;99.90;;;5.81;100.00;96852.97;4977399;28;20082;-70
2021/12/24 01:08:10;;;;;;;15.05;10.00;;;6.80;99.90;;;5.88;100.00;96858.75;4980133;28;20133;-70
2021/12/24 01:10:50;;;;;;;17.75;9.65;;;6.90;99.90;;;5.95;100.00;96854.25;4982834;28;20046;-70
2021/12/24 01:13:18;;;;;;;14.55;9.00;;;6.90;99.90;;;6.00;100.00;96854.94;4977738;28;20533;-70
2021/12/24 01:15:56;;;;;;;15.15;9.60;;;6.90;99.90;;;5.93;100.00;96856.88;4977095;28;20521;-70
2021/12/24 01:21:02;;;;;;;15.50;9.85;;;6.90;99.90;;;6.02;100.00;96847.97;4979811;28;20150;-70
2021/12/24 01:26:05;;;;;;;19.38;10.00;;;7.00;99.90;;;6.05;100.00;96851.28;4978093;28;20180;-70
2021/12/24 01:39:11;;;;;;;22.27;10.35;;;6.90;99.90;;;5.97;100.00;96860.19;4980413;28;20051;-70
2021/12/24 01:44:27;;;;;;;15.27;9.43;;;6.80;99.90;;;5.84;100.00;96846.88;4981306;28;20150;-70
2021/12/24 01:47:01;;;;;;;16.48;10.95;;;6.90;99.90;;;5.87;100.00;96855.34;4983402;28;20198;-70
2021/12/24 01:49:28;;;;;;;18.02;11.15;;;6.80;99.90;;;5.80;100.00;96851.28;4974931;28;20042;-69
2021/12/24 01:51:57;;;;;;;16.05;9.88;;;6.70;99.90;;;5.76;100.00;96864.34;4978326;28;20133;-69
2021/12/24 01:54:26;;;;;;;17.85;10.38;;;6.70;99.90;;;5.71;100.00;96861.09;4980581;28;20363;-68
2021/12/24 01:56:53;;;;;;;19.98;12.02;;;6.60;99.90;;;5.60;100.00;96849.41;4981892;28;20050;-69
2021/12/24 01:59:20;;;;;;;17.73;11.20;;;6.50;99.90;;;5.55;100.00;96853.03;4979940;28;20122;-69
2021/12/24 02:01:49;;;;;;;21.73;12.00;;;6.50;99.90;;;5.44;100.00;96835.38;4977133;28;20055;-69
2021/12/24 02:04:18;;;;;;;24.38;12.57;;;6.50;99.90;;;5.50;100.00;96836.94;4982103;28;20051;-69
2021/12/24 02:06:47;;;;;;;22.02;11.88;;;6.50;99.90;;;5.56;100.00;96832.38;4984256;28;20146;-68
2021/12/24 02:09:14;;;;;;;21.65;11.98;;;6.50;99.90;;;5.49;100.00;96833.50;4984133;28;20054;-68
2021/12/24 02:11:42;;;;;;;23.30;12.00;;;6.40;99.90;;;5.61;100.00;96832.22;4977491;28;20395;-68
2021/12/24 02:14:14;;;;;;;19.30;12.23;;;6.30;99.90;;;5.55;100.00;96824.72;4982536;28;20042;-68
2021/12/24 02:30:43;;;;;;;21.95;10.70;;;6.40;99.90;;;5.57;100.00;96816.06;4990315;28;20137;-68
2021/12/24 02:33:10;;;;;;;21.20;13.20;;;6.40;99.90;;;5.56;100.00;96816.94;4990515;28;20752;-68
2021/12/24 02:35:38;;;;;;;24.73;13.52;;;6.40;99.90;;;5.53;100.00;96814.47;4989924;28;20076;-68
2021/12/24 02:38:05;;;;;;;21.25;12.20;;;6.40;99.90;;;5.51;100.00;96826.56;4989554;28;20065;-70
2021/12/24 02:40:34;;;;;;;19.77;12.93;;;6.40;99.90;;;5.57;100.00;96817.78;4991647;28;20521;-70
2021/12/24 02:43:03;;;;;;;29.33;14.63;;;6.50;99.90;;;5.50;100.00;96814.59;4989230;28;20379;-70
2021/12/24 02:45:34;;;;;;;20.95;11.10;;;6.50;99.90;;;5.62;100.00;96821.03;4988335;28;20078;-70
2021/12/24 02:56:13;;;;;;;21.90;12.65;;;6.60;99.90;;;5.69;100.00;96794.19;4986110;28;20086;-69
2021/12/24 02:58:47;;;;;;;22.92;13.57;;;6.60;99.90;;;5.69;100.00;96791.59;4989567;28;20085;-69
2021/12/24 03:01:21;;;;;;;22.17;13.48;;;6.70;99.90;;;5.69;100.00;96776.16;4984236;28;20058;-69
2021/12/24 03:03:48;;;;;;;21.75;14.02;;;6.60;99.90;;;5.70;100.00;96801.00;4986907;28;20077;-69
2021/12/24 03:06:19;;;;;;;20.45;12.05;;;6.70;99.90;;;5.80;100.00;96806.69;4990251;28;20391;-70
2021/12/24 03:08:46;;;;;;;23.67;13.55;;;6.70;99.90;;;5.71;100.00;96802.69;4987435;28;20201;-70
2021/12/24 03:11:13;;;;;;;24.83;14.55;;;6.80;99.90;;;5.78;100.00;96796.44;4986655;28;20070;-70
2021/12/24 03:13:41;;;;;;;20.25;12.52;;;6.80;99.90;;;5.72;100.00;96803.53;4988711;28;20077;-69
2021/12/24 03:16:08;;;;;;;26.48;13.40;;;6.70;99.90;;;5.74;100.00;96774.25;4988577;28;20065;-69
2021/12/24 03:18:38;;;;;;;24.60;12.73;;;6.70;99.90;;;5.73;100.00;96770.00;4986806;28;20396;-69
2021/12/24 03:22:14;;;;;;;21.40;13.93;;;6.70;99.90;;;5.68;100.00;96776.19;4990705;28;20061;-69
2021/12/24 03:26:37;;;;;;;27.42;14.18;;;6.70;99.90;;;5.70;100.00;96771.84;4990275;28;20051;-70
2021/12/24 03:29:07;;;;;;;24.45;13.93;;;6.70;99.90;;;5.68;100.00;96784.78;4986673;28;20085;-70
2021/12/24 03:31:37;;;;;;;23.25;14.10;;;6.70;99.90;;;5.60;100.00;96781.63;4990207;28;20104;-69
2021/12/24 03:34:07;;;;;;;25.38;14.13;;;6.80;99.90;;;5.59;100.00;96780.81;4986832;28;20481;-70
2021/12/24 03:36:35;;;;;;;21.98;13.88;;;6.80;99.90;;;5.61;100.00;96780.72;4984585;28;20149;-69
2021/12/24 03:39:05;;;;;;;22.88;14.43;;;6.60;99.90;;;5.64;100.00;96768.59;4987008;28;20394;-70
2021/12/24 03:41:32;;;;;;;23.48;14.52;;;6.70;99.90;;;5.71;100.00;96765.81;4987625;28;20133;-70
2021/12/24 03:43:59;;;;;;;19.27;12.85;;;6.70;99.90;;;5.59;100.00;96779.97;4985443;28;20171;-69
2021/12/24 03:46:40;;;;;;;25.42;14.15;;;6.70;99.90;;;5.58;100.00;96779.09;4987502;28;20046;-69
2021/12/24 03:49:16;;;;;;;25.63;15.90;;;6.70;99.90;;;5.60;100.00;96784.22;4987448;28;20058;-69
2021/12/24 03:51:56;;;;;;;22.92;15.02;;;6.70;99.90;;;5.64;100.00;96784.06;4987054;28;20412;-69
2021/12/24 03:57:09;;;;;;;26.08;15.05;;;6.70;99.90;;;5.68;100.00;96774.50;4989081;28;20074;-69
2021/12/24 03:59:36;;;;;;;24.42;13.93;;;6.80;99.90;;;5.74;100.00;96771.69;4986491;28;20125;-69
2021/12/24 04:02:03;;;;;;;22.33;12.57;;;6.70;99.90;;;5.77;100.00;96766.44;4987248;28;20086;-69
2021/12/24 04:04:30;;;;;;;21.58;12.32;;;6.70;99.90;;;5.70;100.00;96762.38;4989806;28;20537;-69
2021/12/24 04:06:57;;;;;;;23.70;13.48;;;6.70;99.90;;;5.73;100.00;96764.03;4987222;28;21667;-69
2021/12/24 04:09:26;;;;;;;25.27;15.07;;;6.70;99.90;;;5.66;100.00;96778.84;4988567;28;20085;-69
2021/12/24 04:11:54;;;;;;;30.52;14.68;;;6.60;99.90;;;5.61;100.00;96770.44;4980368;28;20476;-70
2021/12/24 04:14:23;;;;;;;25.60;15.75;;;6.70;99.90;;;5.59;100.00;96770.50;4990749;28;20412;-69
2021/12/24 04:16:50;;;;;;;21.92;12.35;;;6.80;99.90;;;5.70;100.00;96774.41;4985743;28;20129;-69
2021/12/24 04:27:29;;;;;;;23.27;13.48;;;6.70;99.90;;;5.74;100.00;96773.41;4983664;28;20141;-70
2021/12/24 04:30:09;;;;;;;20.70;12.85;;;6.70;99.90;;;5.71;100.00;96760.66;4988486;28;20054;-70
2021/12/24 04:32:52;;;;;;;20.88;12.43;;;6.70;99.90;;;5.76;100.00;96769.06;4987448;28;20126;-69
2021/12/24 04:38:24;;;;;;;22.27;14.02;;;6.70;99.90;;;5.80;100.00;96755.19;4981795;28;20137;-69
2021/12/24 04:52:05;;;;;;;23.35;11.73;;;6.70;99.90;;;5.74;100.00;96748.50;4988098;28;20050;-69
2021/12/24 05:03:04;;;;;;;22.42;13.52;;;6.70;99.90;;;5.91;100.00;96753.06;4985968;28;20046;-70
2021/12/24 05:05:48;;;;;;;20.85;12.25;;;6.70;99.90;;;5.80;100.00;96762.91;4985179;28;20129;-69
2021/12/24 05:08:27;;;;;;;16.92;12.18;;;6.70;99.90;;;5.84;100.00;96754.19;4985987;28;20076;-70
2021/12/24 05:10:54;;;;;;;24.02;13.57;;;6.70;99.90;;;5.79;100.00;96756.91;4986516;28;20081;-69
2021/12/24 05:13:22;;;;;;;20.63;13.23;;;6.70;99.90;;;5.76;100.00;96756.19;4986007;28;20130;-69
2021/12/24 05:15:54;;;;;;;21.65;12.63;;;6.80;99.90;;;5.72;100.00;96765.75;4987006;28;20542;-69
2021/12/24 05:21:42;;;;;;;18.08;9.82;;;6.80;99.90;;;5.81;100.00;96759.41;4978352;28;20133;-69
2021/12/24 05:24:16;;;;;;;22.23;10.77;;;6.80;99.90;;;5.84;100.00;96757.59;4984569;28;20077;-70
2021/12/24 05:26:54;;;;;;;21.83;12.27;;;6.80;99.90;;;5.80;100.00;96771.47;4987699;28;20092;-70
2021/12/24 05:29:21;;;;;;;19.65;11.50;;;6.80;99.90;;;5.70;100.00;96771.84;4986576;28;20053;-69
2021/12/24 05:31:50;;;;;;;17.85;10.70;;;6.80;99.90;;;5.83;100.00;96763.63;4985017;28;20083;-69
2021/12/24 05:34:18;;;;;;;22.48;12.25;;;6.80;99.90;;;5.76;100.00;96759.59;4978495;28;20061;-69
2021/12/24 05:36:47;;;;;;;22.20;13.20;;;6.70;99.90;;;5.79;100.00;96756.06;4986086;28;20076;-69
2021/12/24 05:39:17;;;;;;;20.98;12.05;;;6.70;99.90;;;5.73;100.00;96759.72;4989000;28;20074;-69
2021/12/24 05:41:46;;;;;;;17.60;11.02;;;6.70;99.90;;;5.73;100.00;96759.72;4983277;28;21550;-69
2021/12/24 05:44:16;;;;;;;18.50;11.30;;;6.70;99.90;;;5.65;100.00;96764.28;4979142;28;20092;-69
2021/12/24 05:46:45;;;;;;;19.13;10.77;;;6.70;99.90;;;5.75;100.00;96746.78;4983768;28;20109;-69
2021/12/24 05:49:13;;;;;;;18.63;10.60;;;6.70;99.90;;;5.75;100.00;96752.78;4986597;28;20100;-69
2021/12/24 05:51:40;;;;;;;22.77;12.63;;;6.60;99.90;;;5.78;100.00;96752.66;4982158;28;20054;-69
2021/12/24 05:54:07;;;;;;;15.90;9.70;;;6.70;99.90;;;5.77;100.00;96752.69;4984022;28;20141;-69
2021/12/24 05:56:35;;;;;;;18.27;10.98;;;6.70;99.90;;;5.77;100.00;96752.69;4985778;28;20043;-69
2021/12/24 05:59:03;;;;;;;21.20;11.00;;;6.70;99.90;;;5.79;100.00;96750.91;4987834;28;20137;-70
2021/12/24 06:01:30;;;;;;;19.00;12.20;;;6.70;99.90;;;5.78;100.00;96757.81;4988190;28;20073;-69
2021/12/24 06:03:58;;;;;;;20.58;10.60;;;6.70;99.90;;;5.68;100.00;96768.47;4985795;28;20062;-69
2021/12/24 06:06:25;;;;;;;20.98;12.45;;;6.70;99.90;;;5.65;100.00;96759.13;4984419;28;20080;-69
2021/12/24 06:08:52;;;;;;;19.95;10.70;;;6.80;99.90;;;5.71;100.00;96766.66;4987805;28;20573;-69
2021/12/24 06:11:19;;;;;;;20.25;11.80;;;6.80;99.90;;;5.70;100.00;96756.41;4989809;28;20518;-69
2021/12/24 06:13:51;;;;;;;25.13;10.82;;;6.80;99.90;;;5.77;100.00;96758.72;4988914;28;20142;-69
2021/12/24 06:16:19;;;;;;;20.20;11.35;;;6.70;99.90;;;5.71;100.00;96761.50;4986939;28;20054;-69
2021/12/24 06:18:46;;;;;;;16.00;10.27;;;6.70;99.90;;;5.72;100.00;96765.75;4989185;28;20061;-70
2021/12/24 06:21:14;;;;;;;22.73;11.68;;;6.70;99.90;;;5.69;100.00;96777.91;4987144;28;20086;-70
2021/12/24 06:23:43;;;;;;;20.15;12.40;;;6.70;99.90;;;5.75;100.00;96775.13;4985998;28;20082;-69
2021/12/24 06:26:12;;;;;;;20.50;9.52;;;6.70;99.90;;;5.76;100.00;96781.94;4985578;28;20060;-68
2021/12/24 06:28:39;;;;;;;19.13;11.30;;;6.70;99.90;;;5.72;100.00;96776.03;4988222;28;20070;-68
2021/12/24 06:31:06;;;;;;;18.42;11.27;;;6.60;99.90;;;5.66;100.00;96786.59;4987901;28;20149;-69
2021/12/24 06:33:34;;;;;;;19.35;11.48;;;6.60;99.90;;;5.79;100.00;96774.94;4989500;28;20435;-68
2021/12/24 06:36:03;;;;;;;22.38;12.40;;;6.70;99.90;;;5.69;100.00;96762.44;4988980;28;20081;-68
2021/12/24 06:38:30;;;;;;;17.10;10.27;;;6.70;99.90;;;5.79;100.00;96762.06;4984807;28;20459;-68
2021/12/24 06:40:57;;;;;;;16.30;9.88;;;6.70;99.90;;;5.78;100.00;96759.53;4988777;28;20078;-68
2021/12/24 06:43:24;;;;;;;16.10;9.65;;;6.60;99.90;;;5.76;100.00;96762.16;4985403;28;20046;-68
2021/12/24 06:45:51;;;;;;;23.27;10.25;;;6.60;99.90;;;5.82;100.00;96761.94;4990931;28;20141;-68
2021/12/24 06:48:18;;;;;;;21.67;12.07;;;6.60;99.90;;;5.75;100.00;96768.22;4988389;28;20129;-68
2021/12/24 06:50:46;;;;;;;23.60;12.75;;;6.60;99.90;;;5.66;100.00;96771.97;4987149;28;20061;-68
2021/12/24 06:53:14;;;;;;;20.88;11.68;;;6.60;99.90;;;5.70;100.00;96769.28;4982897;28;20157;-68
2021/12/24 06:55:41;;;;;;;21.33;10.45;;;6.70;99.90;;;5.71;100.00;96771.78;4988424;28;20566;-68
2021/12/24 06:58:08;;;;;;;24.60;11.75;;;6.70;99.90;;;5.75;100.00;96755.34;4990923;28;20142;-68
2021/12/24 07:00:36;;;;;;;27.52;12.88;;;6.70;99.90;;;5.69;100.00;96754.72;4987201;28;20141;-68
2021/12/24 07:03:03;;;;;;;24.85;11.68;;;6.70;99.90;;;5.69;100.00;96760.72;4985283;28;20141;-68
2021/12/24 07:05:30;;;;;;;24.05;12.15;;;6.60;99.90;;;5.62;100.00;96749.78;4986136;28;20073;-68
2021/12/24 07:07:57;;;;;;;23.90;13.48;;;6.60;99.90;;;5.69;100.00;96755.56;4987731;28;20217;-68
2021/12/24 07:10:24;;;;;;;26.63;13.82;;;6.60;99.90;;;5.54;100.00;96784.41;4986903;28;20120;-68
2021/12/24 07:12:52;;;;;;;28.63;11.40;;;6.60;99.90;;;5.52;100.00;96755.31;4988051;28;20046;-68
2021/12/24 07:15:19;;;;;;;24.88;13.68;;;6.60;99.90;;;5.53;100.00;96754.44;4988475;28;20069;-68
2021/12/24 07:17:46;;;;;;;24.50;13.05;;;6.40;99.90;;;5.45;100.00;96762.41;4987393;28;20124;-68
2021/12/24 07:20:14;;;;;;;25.48;13.10;;;6.40;99.90;;;5.36;100.00;96750.72;4986230;28;20066;-68
2021/12/24 07:22:41;;;;;;;26.70;14.10;;;6.40;99.90;;;5.37;100.00;96752.41;4984345;28;20070;-68
2021/12/24 07:25:08;;;;;;;18.35;11.23;;;6.40;99.90;;;5.40;100.00;96754.84;4985037;28;20953;-70
2021/12/24 07:27:36;;;;;;;26.55;13.05;;;6.30;99.90;;;5.37;100.00;96757.53;4986829;28;20487;-68
2021/12/24 07:30:09;;;;;;;23.40;13.70;;;6.30;99.90;;;5.44;100.00;96750.44;4989668;28;20470;-68
2021/12/24 07:32:38;;;;;;;28.55;15.02;;;6.20;99.90;;;5.31;100.00;96751.78;4987305;28;20066;-68
2021/12/24 07:35:06;;;;;;;29.50;16.00;;;6.20;99.90;;;5.29;100.00;96754.41;4984197;28;20074;-68
2021/12/24 07:37:33;;;;;;;25.75;15.35;;;6.20;99.90;;;5.22;100.00;96758.94;4983364;28;20069;-68
2021/12/24 07:40:03;;;;;;;26.83;13.65;;;6.20;99.90;;;5.22;100.00;96751.22;4990957;28;20217;-69
2021/12/24 07:42:31;;;;;;;25.35;16.73;;;6.10;99.90;;;5.23;100.00;96740.03;4969617;28;20112;-68
2021/12/24 07:44:58;;;;;;;30.85;17.52;;;6.10;99.90;;;5.19;100.00;96747.91;4987835;28;20209;-68
2021/12/24 07:47:33;;;;;;;28.88;16.55;;;6.10;99.90;;;5.12;100.00;96754.16;4988830;28;20097;-68
2021/12/24 07:50:03;;;;;;;26.08;15.15;;;6.10;99.90;;;5.17;100.00;96763.38;4987165;28;20551;-68
2021/12/24 07:52:31;;;;;;;27.55;15.52;;;6.10;99.90;;;5.15;100.00;96759.19;4985742;28;20042;-68
2021/12/24 07:54:58;;;;;;;27.40;16.50;;;6.10;99.90;;;5.19;100.00;96753.88;4987106;28;20184;-68
2021/12/24 07:57:46;;;;;;;31.67;18.27;;;6.10;99.90;;;5.24;100.00;96752.00;4988542;28;20046;-68
2021/12/24 08:00:13;;;;;;;24.30;14.93;;;6.10;99.90;;;5.30;100.00;96761.22;5003149;28;20069;-69
2021/12/24 08:02:41;;;;;;;32.13;17.33;;;6.10;99.90;;;5.18;100.00;96771.97;4985407;28;20050;-69
2021/12/24 08:05:10;;;;;;;34.08;15.65;;;6.10;99.90;;;5.14;100.00;96760.91;4984243;28;20457;-68
2021/12/24 08:07:37;;;;;;;32.10;16.15;;;6.10;99.90;;;5.14;100.00;96757.50;4983671;28;20227;-68
2021/12/24 08:10:04;;;;;;;31.85;17.23;;;6.10;99.90;;;5.16;100.00;96769.44;4984609;28;20042;-68
2021/12/24 08:12:31;;;;;;;33.13;17.17;;;6.10;99.90;;;5.18;100.00;96754.78;4985693;28;20640;-69
2021/12/24 08:14:58;;;;;;;31.65;15.90;;;6.10;99.90;;;5.16;100.00;96758.31;4985385;28;20435;-68
2021/12/24 08:17:25;;;;;;;29.45;13.55;;;6.10;99.90;;;5.21;100.00;96764.13;4987911;28;20526;-68
2021/12/24 08:19:52;;;;;;;30.95;16.02;;;6.10;99.90;;;5.25;100.00;96760.56;4987240;28;20246;-69
2021/12/24 08:22:19;;;;;;;37.83;19.73;;;6.10;99.90;;;5.21;100.00;96769.28;4986994;28;20141;-69
2021/12/24 08:24:46;;;;;;;28.73;16.17;;;6.10;99.90;;;5.18;100.00;96770.22;4984155;28;20078;-68
2021/12/24 08:27:13;;;;;;;37.50;19.83;;;6.10;99.90;;;5.13;100.00;96766.97;4984911;28;20054;-69
2021/12/24 08:29:40;;;;;;;28.92;15.27;;;6.20;99.90;;;5.19;100.00;96761.59;4987244;28;20170;-68
2021/12/24 08:32:07;;;;;;;30.80;16.77;;;6.20;99.90;;;5.21;100.00;96764.13;4984294;28;20886;-68
2021/12/24 08:34:35;;;;;;;25.27;15.68;;;6.20;99.90;;;5.18;100.00;96774.53;4986462;28;20309;-69
2021/12/24 08:37:02;;;;;;;35.63;18.35;;;6.20;99.90;;;5.15;100.00;96762.59;4983390;28;20046;-68
2021/12/24 08:39:29;;;;;;;36.83;18.85;;;6.20;99.90;;;5.26;100.00;96757.06;4986442;28;20153;-68
2021/12/24 08:41:56;;;;;;;33.42;16.75;;;6.20;99.90;;;5.18;100.00;96753.94;4987569;28;20046;-69
2021/12/24 08:44:30;;;;;;;26.58;16.60;;;6.20;99.90;;;5.26;100.00;96745.94;4983992;28;20050;-69
2021/12/24 08:47:01;;;;;;;30.27;17.83;;;6.10;99.90;;;5.20;100.00;96740.13;4984596;28;20137;-69
2021/12/24 08:49:29;;;;;;;27.27;15.93;;;6.10;99.90;;;5.27;100.00;96740.75;4987919;28;20073;-69
2021/12/24 08:51:56;;;;;;;36.22;16.90;;;6.10;99.90;;;5.22;100.00;96742.63;4984395;28;20133;-68
2021/12/24 08:54:24;;;;;;;30.33;17.10;;;6.20;99.90;;;5.18;100.00;96739.34;4983617;28;20557;-68
2021/12/24 08:56:56;;;;;;;28.13;17.00;;;6.20;99.90;;;5.19;100.00;96737.59;5001209;28;20145;-70
2021/12/24 08:59:24;;;;;;;29.65;16.23;;;6.10;99.90;;;5.22;100.00;96742.63;4983706;28;20070;-70
2021/12/24 09:01:51;;;;;;;31.60;15.70;;;6.20;99.90;;;5.28;100.00;96742.44;4980536;28;20053;-69
2021/12/24 09:04:20;;;;;;;27.23;15.05;;;6.10;99.90;;;5.26;100.00;96736.50;4987760;28;20046;-70
2021/12/24 09:06:47;;;;;;;26.48;14.10;;;6.20;99.90;;;5.31;100.00;96741.47;4984257;28;20042;-70
2021/12/24 09:09:14;;;;;;;30.20;15.23;;;6.10;99.90;;;5.35;100.00;96737.91;4985481;28;20491;-70
2021/12/24 09:11:43;;;;;;;32.60;18.42;;;6.20;99.90;;;5.26;100.00;96736.50;4983092;28;20153;-70
2021/12/24 09:14:11;;;;;;;30.30;16.35;;;6.20;99.90;;;5.27;100.00;96737.31;4977905;28;20074;-70
2021/12/24 09:16:39;;;;;;;36.65;19.67;;;6.20;99.90;;;5.24;100.00;96740.84;4986690;28;20058;-70
2021/12/24 09:19:11;;;;;;;43.53;17.95;;;6.20;99.90;;;5.26;100.00;96743.38;4985994;28;20054;-70
2021/12/24 09:21:38;;;;;;;30.42;17.17;;;6.20;99.90;;;5.27;100.00;96743.34;4983961;28;20074;-70
2021/12/24 09:24:07;;;;;;;29.75;14.70;;;6.30;99.90;;;5.18;100.00;96743.66;4983829;28;20046;-70
2021/12/24 09:26:38;;;;;;;32.08;14.52;;;6.30;99.90;;;5.19;100.00;96751.31;4986212;28;20125;-70
2021/12/24 09:29:09;;;;;;;35.42;17.30;;;6.30;99.90;;;5.29;100.00;96741.56;4978462;28;20140;-70
2021/12/24 09:31:36;;;;;;;37.78;19.65;;;6.20;99.90;;;5.30;100.00;96732.09;4987676;28;20084;-70
2021/12/24 09:34:04;;;;;;;40.33;18.77;;;6.20;99.90;;;5.21;100.00;96726.38;4989430;28;20046;-70
2021/12/24 09:36:31;;;;;;;32.60;16.52;;;6.20;99.90;;;5.28;100.00;96723.59;4990792;28;20070;-70
2021/12/24 09:39:03;;;;;;;28.55;14.13;;;6.20;99.90;;;5.22;100.00;96735.78;4990399;28;20133;-70
2021/12/24 09:41:30;;;;;;;40.97;19.48;;;6.30;99.90;;;5.22;100.00;96733.22;4986788;28;20442;-70
2021/12/24 09:44:00;;;;;;;39.05;17.25;;;6.30;99.90;;;5.25;100.00;96734.84;4992472;28;20085;-70
2021/12/24 09:46:29;;;;;;;25.60;14.73;;;6.30;99.90;;;5.30;100.00;96727.78;4988796;28;20109;-70
2021/12/24 09:48:57;;;;;;;32.65;15.50;;;6.30;99.90;;;5.31;100.00;96734.59;4989778;28;20097;-70
2021/12/24 09:51:27;;;;;;;30.55;12.93;;;6.30;99.90;;;5.32;100.00;96738.88;4987857;28;20042;-70
2021/12/24 09:53:56;;;;;;;25.63;14.95;;;6.30;99.90;;;5.43;100.00;96735.91;4989892;28;20042;-70
2021/12/24 09:56:24;;;;;;;26.27;14.20;;;6.30;99.90;;;5.38;100.00;96737.78;4987178;28;20130;-70
2021/12/24 09:58:51;;;;;;;28.13;14.88;;;6.30;99.90;;;5.34;100.00;96744.78;4986599;28;20525;-70
2021/12/24 10:01:42;;;;;;;28.27;15.68;;;6.40;99.90;;;5.35;100.00;96733.59;4983354;28;20062;-70
2021/12/24 10:04:18;;;;;;;21.30;13.40;;;6.40;99.90;;;5.46;100.00;96728.06;4985382;28;20220;-70
2021/12/24 10:06:54;;;;;;;20.90;13.27;;;6.40;99.90;;;5.46;100.00;96738.38;4979664;28;20141;-70
2021/12/24 10:09:29;;;;;;;25.30;14.63;;;6.40;99.90;;;5.54;100.00;96730.38;4986973;28;20531;-70
2021/12/24 10:12:02;;;;;;;31.00;14.75;;;6.40;99.90;;;5.52;100.00;96730.44;4990200;28;20100;-70
2021/12/24 10:14:42;;;;;;;23.30;12.98;;;6.40;99.90;;;5.52;100.00;96727.00;4988473;28;20133;-70
2021/12/24 10:17:22;;;;;;;21.98;11.95;;;6.40;99.90;;;5.51;100.00;96718.44;4985480;28;20241;-70
2021/12/24 10:19:51;;;;;;;25.55;15.68;;;6.40;99.90;;;5.53;100.00;96719.22;4987141;28;20133;-70
2021/12/24 10:22:25;;;;;;;24.10;12.65;;;6.40;99.90;;;5.54;100.00;96712.34;4987581;28;20061;-70
2021/12/24 10:25:02;;;;;;;27.50;15.15;;;6.40;99.90;;;5.58;100.00;96717.31;4984567;28;20077;-70
2021/12/24 10:27:32;;;;;;;27.63;13.80;;;6.50;99.90;;;5.51;100.00;96721.03;4987593;28;20137;-70
2021/12/24 10:30:14;;;;;;;27.63;14.13;;;6.60;99.90;;;5.53;100.00;96723.56;4982569;28;20133;-70
2021/12/24 10:32:41;;;;;;;22.10;13.02;;;6.60;99.90;;;5.63;100.00;96715.44;4984201;28;20047;-70
2021/12/24 10:35:27;;;;;;;26.27;15.70;;;6.50;99.90;;;5.58;100.00;96719.91;4987903;28;20054;-70
2021/12/24 10:38:16;;;;;;;23.67;14.17;;;6.60;99.90;;;5.63;100.00;96717.16;4989678;28;20085;-70
2021/12/24 10:40:51;;;;;;;22.45;13.60;;;6.50;99.90;;;5.53;100.00;96724.38;4982720;28;20305;-70
2021/12/24 10:43:33;;;;;;;30.30;16.52;;;6.50;99.90;;;5.54;100.00;96714.91;4984725;28;20133;-70
2021/12/24 10:46:22;;;;;;;24.98;13.30;;;6.60;99.90;;;5.65;100.00;96708.47;4981587;28;20514;-70
2021/12/24 10:49:08;;;;;;;22.70;12.30;;;6.60;99.90;;;5.57;100.00;96707.94;4981781;28;20142;-70
2021/12/24 10:51:57;;;;;;;21.88;12.50;;;6.60;99.90;;;5.62;100.00;96711.19;4985250;28;20046;-70
2021/12/24 10:54:26;;;;;;;21.10;11.82;;;6.60;99.90;;;5.59;100.00;96707.88;4984687;28;20049;-70
2021/12/24 10:56:54;;;;;;;18.45;11.20;;;6.70;99.90;;;5.66;100.00;96717.91;4987673;28;20062;-70
2021/12/24 10:59:45;;;;;;;20.15;11.57;;;6.60;99.90;;;5.61;100.00;96712.09;4986801;28;20133;-70
2021/12/24 11:02:13;;;;;;;18.35;10.38;;;6.60;99.90;;;5.75;100.00;96701.28;4983500;28;20105;-70
2021/12/24 11:04:40;;;;;;;17.65;11.00;;;6.60;99.90;;;5.70;100.00;96716.03;4985362;28;20560;-70
2021/12/24 11:07:42;;;;;;;14.68;9.80;;;6.60;99.90;;;5.73;100.00;96715.09;4982895;28;20046;-70
2021/12/24 11:10:19;;;;;;;21.75;12.50;;;6.60;99.90;;;5.71;100.00;96711.75;4983884;28;20057;-70
2021/12/24 11:12:50;;;;;;;20.35;10.80;;;6.70;99.90;;;5.77;100.00;96696.91;4981339;28;20069;-70
2021/12/24 11:15:24;;;;;;;14.77;8.73;;;6.70;99.90;;;5.77;100.00;96686.59;4978661;28;20132;-70
2021/12/24 11:17:55;;;;;;;15.13;10.15;;;6.70;99.90;;;5.83;100.00;96690.66;4987661;28;20129;-70
2021/12/24 11:20:22;;;;;;;17.33;10.77;;;6.80;99.90;;;5.89;100.00;96687.03;4985611;28;20129;-70
2021/12/24 11:23:01;;;;;;;12.38;7.78;;;6.90;99.90;;;5.96;100.00;96671.31;4978547;28;20074;-70
2021/12/24 11:25:40;;;;;;;13.60;8.60;;;6.90;99.90;;;5.98;100.00;96669.53;4981405;28;20158;-70
2021/12/24 11:28:08;;;;;;;19.70;11.43;;;6.90;99.90;;;5.94;100.00;96673.09;4982027;28;20125;-68
2021/12/24 11:30:40;;;;;;;17.33;10.52;;;6.90;99.90;;;5.90;100.00;96668.94;4985653;28;20278;-70
2021/12/24 11:33:15;;;;;;;20.15;11.88;;;6.90;99.90;;;5.77;100.00;96678.03;4982935;28;20114;-70
2021/12/24 11:35:45;;;;;;;26.33;13.30;;;6.90;99.90;;;5.83;100.00;96663.19;4998825;28;20137;-70
2021/12/24 11:38:27;;;;;;;23.65;13.80;;;6.90;99.90;;;5.81;100.00;96671.88;4983304;28;20208;-70
2021/12/24 11:40:58;;;;;;;30.38;15.18;;;7.00;99.90;;;5.84;100.00;96669.19;4983494;28;20534;-70
2021/12/24 11:43:37;;;;;;;29.20;16.10;;;6.90;99.90;;;5.78;100.00;96672.00;4981988;28;20092;-70
2021/12/24 11:46:08;;;;;;;39.47;16.80;;;6.90;99.90;;;5.82;100.00;96665.84;4983550;28;20078;-70
2021/12/24 11:48:36;;;;;;;28.58;14.73;;;6.90;99.90;;;5.75;100.00;96666.97;4981723;28;20234;-69
2021/12/24 11:51:15;;;;;;;54.33;21.80;;;6.90;99.90;;;5.86;100.00;96657.94;4986240;28;20580;-70
2021/12/24 11:53:43;;;;;;;59.03;20.73;;;6.80;99.90;;;5.74;100.00;96649.81;4986097;28;20137;-70
2021/12/24 11:56:13;;;;;;;60.00;23.20;;;6.80;99.90;;;5.72;100.00;96642.16;4977391;28;20078;-70
2021/12/24 11:58:53;;;;;;;47.70;18.02;;;6.80;99.90;;;5.76;100.00;96637.72;4986957;28;20138;-70
2021/12/24 12:01:25;;;;;;;44.90;19.15;;;6.90;99.90;;;5.78;100.00;96644.50;4983161;28;20147;-70
2021/12/24 12:03:55;;;;;;;67.37;23.87;;;6.90;99.90;;;5.70;100.00;96648.25;4985821;28;20050;-70
2021/12/24 12:06:22;;;;;;;53.65;18.98;;;6.90;99.90;;;5.87;100.00;96645.88;4985469;28;20045;-70